createdAt,value
2018-03-23T00:01:41.127Z,20.00
2018-03-23T00:04:09.919Z,20.60
2018-03-23T00:06:38.722Z,18.77
2018-03-23T00:09:07.519Z,21.70
2018-03-23T00:11:36.323Z,21.27
2018-03-23T00:14:05.114Z,20.67
2018-03-23T00:16:33.931Z,20.07
2018-03-23T00:19:02.727Z,18.87
2018-03-23T00:21:31.527Z,19.87
2018-03-23T00:24:00.322Z,17.27
2018-03-23T00:26:29.125Z,19.10
2018-03-23T00:28:57.919Z,18.67
2018-03-23T00:31:26.713Z,17.83
2018-03-23T00:33:55.524Z,18.20
2018-03-23T00:36:24.321Z,18.13
2018-03-23T00:38:53.106Z,17.03
2018-03-23T00:41:21.905Z,15.03
2018-03-23T00:43:50.698Z,16.87
2018-03-23T00:46:19.494Z,17.33
2018-03-23T00:48:48.287Z,15.00
2018-03-23T00:51:17.086Z,14.73
2018-03-23T00:53:45.878Z,15.97
2018-03-23T00:56:14.683Z,14.27
2018-03-23T00:58:43.470Z,15.87
2018-03-23T01:01:12.280Z,15.17
2018-03-23T01:03:41.061Z,15.40
2018-03-23T01:06:09.871Z,14.83
2018-03-23T01:08:38.663Z,14.67
2018-03-23T01:11:07.466Z,14.87
2018-03-23T01:13:36.261Z,15.40
2018-03-23T01:16:05.064Z,14.10
2018-03-23T01:18:33.854Z,13.50
2018-03-23T01:21:02.654Z,13.93
2018-03-23T01:23:31.442Z,13.53
2018-03-23T01:26:00.272Z,15.40
2018-03-23T01:28:29.074Z,14.73
2018-03-23T01:30:57.862Z,14.23
2018-03-23T01:33:26.658Z,14.80
2018-03-23T01:35:55.459Z,14.17
2018-03-23T01:38:24.264Z,14.90
2018-03-23T01:40:53.050Z,13.40
2018-03-23T01:43:21.851Z,14.30
2018-03-23T01:45:50.642Z,13.50
2018-03-23T01:48:19.435Z,14.83
2018-03-23T01:50:48.236Z,14.17
2018-03-23T01:53:22.799Z,13.83
2018-03-23T01:55:51.586Z,14.33
2018-03-23T01:58:20.382Z,15.33
2018-03-23T02:00:49.182Z,15.10
2018-03-23T02:03:17.986Z,13.83
2018-03-23T02:05:46.779Z,13.07
2018-03-23T02:08:15.569Z,13.10
2018-03-23T02:10:44.378Z,14.53
2018-03-23T02:13:13.182Z,13.67
2018-03-23T02:15:41.979Z,12.77
2018-03-23T02:18:10.774Z,12.20
2018-03-23T02:20:39.562Z,14.13
2018-03-23T02:23:08.372Z,13.03
2018-03-23T02:25:37.163Z,12.37
2018-03-23T02:28:05.968Z,12.13
2018-03-23T02:30:34.762Z,13.40
2018-03-23T02:33:03.563Z,12.33
2018-03-23T02:35:32.355Z,12.97
2018-03-23T02:38:01.159Z,12.23
2018-03-23T02:40:29.951Z,11.87
2018-03-23T02:42:58.751Z,11.07
2018-03-23T02:45:27.546Z,11.17
2018-03-23T02:47:56.356Z,12.47
2018-03-23T02:50:25.142Z,9.70
2018-03-23T02:52:53.953Z,10.40
2018-03-23T02:55:22.747Z,10.70
2018-03-23T02:57:51.560Z,10.77
2018-03-23T03:00:20.347Z,11.47
2018-03-23T03:02:49.154Z,11.00
2018-03-23T03:05:17.942Z,11.57
2018-03-23T03:07:46.742Z,13.33
2018-03-23T03:10:15.538Z,13.97
2018-03-23T03:12:44.371Z,13.50
2018-03-23T03:15:13.149Z,13.90
2018-03-23T03:17:41.951Z,15.13
2018-03-23T03:20:10.751Z,14.90
2018-03-23T03:22:39.550Z,18.07
2018-03-23T03:25:08.337Z,17.53
2018-03-23T03:27:37.139Z,17.00
2018-03-23T03:30:05.942Z,17.97
2018-03-23T03:32:34.743Z,17.30
2018-03-23T03:35:03.526Z,16.70
2018-03-23T03:37:32.331Z,17.60
2018-03-23T03:40:01.122Z,18.10
2018-03-23T03:42:29.926Z,18.73
2018-03-23T03:44:58.721Z,17.80
2018-03-23T03:47:27.514Z,17.60
2018-03-23T03:49:56.306Z,17.73
2018-03-23T03:52:25.107Z,17.77
2018-03-23T03:54:53.902Z,16.90
2018-03-23T03:57:22.707Z,16.00
2018-03-23T03:59:51.502Z,15.93
2018-03-23T04:02:20.298Z,15.37
2018-03-23T04:04:49.090Z,15.63
2018-03-23T04:07:17.886Z,16.17
2018-03-23T04:09:46.678Z,14.90
2018-03-23T04:12:15.475Z,14.87
2018-03-23T04:14:44.271Z,15.10
2018-03-23T04:17:13.076Z,15.90
2018-03-23T04:19:41.894Z,16.10
2018-03-23T04:22:10.662Z,15.13
2018-03-23T04:24:39.457Z,16.30
2018-03-23T04:27:08.259Z,16.43
2018-03-23T04:29:37.054Z,16.03
2018-03-23T04:32:05.850Z,17.00
2018-03-23T04:34:34.646Z,18.53
2018-03-23T04:37:03.455Z,18.37
2018-03-23T04:39:32.242Z,20.23
2018-03-23T04:42:01.044Z,18.70
2018-03-23T04:44:29.840Z,20.13
2018-03-23T04:46:58.626Z,18.43
2018-03-23T04:49:27.426Z,18.30
2018-03-23T04:51:56.222Z,18.00
2018-03-23T04:54:25.023Z,18.67
2018-03-23T04:56:53.815Z,20.50
2018-03-23T04:59:22.606Z,21.47
2018-03-23T05:01:51.400Z,21.43
2018-03-23T05:04:20.206Z,19.37
2018-03-23T05:06:48.997Z,21.03
2018-03-23T05:09:17.790Z,20.23
2018-03-23T05:11:46.591Z,21.23
2018-03-23T05:14:15.383Z,21.60
2018-03-23T05:16:44.201Z,20.37
2018-03-23T05:19:12.990Z,22.17
2018-03-23T05:21:41.786Z,24.17
2018-03-23T05:24:10.574Z,24.33
2018-03-23T05:26:39.370Z,25.50
2018-03-23T05:29:08.168Z,26.00
2018-03-23T05:31:36.998Z,25.30
2018-03-23T05:34:05.763Z,23.63
2018-03-23T05:36:34.567Z,26.10
2018-03-23T05:39:03.366Z,25.40
2018-03-23T05:41:32.162Z,25.37
2018-03-23T05:44:00.971Z,25.90
2018-03-23T05:46:29.766Z,23.67
2018-03-23T05:48:58.553Z,23.83
2018-03-23T05:51:27.342Z,25.33
2018-03-23T05:53:56.711Z,26.00
2018-03-23T05:56:25.505Z,23.53
2018-03-23T05:58:54.298Z,27.47
2018-03-23T06:01:23.098Z,29.03
2018-03-23T06:03:51.890Z,27.50
2018-03-23T06:06:20.678Z,28.97
2018-03-23T06:08:49.478Z,29.57
2018-03-23T06:11:18.272Z,31.47
2018-03-23T06:13:47.078Z,28.83
2018-03-23T06:16:15.865Z,31.10
2018-03-23T06:18:44.671Z,31.43
2018-03-23T06:21:13.458Z,34.73
2018-03-23T06:23:42.254Z,32.70
2018-03-23T06:26:11.038Z,37.63
2018-03-23T06:28:39.839Z,47.10
2018-03-23T06:31:08.631Z,38.20
2018-03-23T06:33:37.431Z,39.83
2018-03-23T06:36:06.251Z,44.97
2018-03-23T06:38:35.055Z,41.30
2018-03-23T06:41:03.850Z,33.90
2018-03-23T06:43:32.643Z,33.70
2018-03-23T06:46:01.436Z,31.83
2018-03-23T06:48:30.299Z,32.27
2018-03-23T06:50:59.043Z,32.93
2018-03-23T06:53:27.847Z,33.50
2018-03-23T06:55:56.658Z,32.00
2018-03-23T06:58:25.434Z,33.17
2018-03-23T07:00:54.230Z,31.90
2018-03-23T07:03:23.018Z,32.83
2018-03-23T07:05:51.823Z,33.17
2018-03-23T07:08:20.619Z,32.60
2018-03-23T07:10:49.414Z,32.37
2018-03-23T07:13:18.216Z,31.23
2018-03-23T07:15:47.033Z,32.33
2018-03-23T07:18:15.850Z,31.03
2018-03-23T07:20:44.630Z,31.30
2018-03-23T07:23:13.431Z,31.97
2018-03-23T07:25:42.236Z,31.17
2018-03-23T07:28:11.023Z,31.97
2018-03-23T07:30:39.844Z,32.13
2018-03-23T07:33:08.643Z,31.77
2018-03-23T07:35:37.455Z,30.63
2018-03-23T07:38:06.251Z,31.37
2018-03-23T07:40:35.050Z,29.90
2018-03-23T07:43:03.846Z,28.97
2018-03-23T07:45:32.655Z,26.97
2018-03-23T07:48:01.534Z,25.17
2018-03-23T07:50:30.338Z,27.37
2018-03-23T07:52:59.131Z,24.50
2018-03-23T07:55:27.943Z,25.00
2018-03-23T07:57:56.748Z,23.10
2018-03-23T08:00:25.539Z,22.63
2018-03-23T08:02:54.338Z,20.27
2018-03-23T08:05:23.142Z,23.00
2018-03-23T08:07:51.946Z,21.07
2018-03-23T08:10:20.742Z,21.23
2018-03-23T08:12:49.561Z,20.57
2018-03-23T08:15:18.358Z,19.10
2018-03-23T08:17:47.158Z,17.83
2018-03-23T08:20:15.951Z,19.97
2018-03-23T08:22:44.750Z,18.57
2018-03-23T08:25:13.547Z,18.07
2018-03-23T08:27:42.348Z,19.20
2018-03-23T08:30:11.138Z,19.27
2018-03-23T08:32:39.934Z,20.07
2018-03-23T08:35:08.734Z,19.47
2018-03-23T08:37:37.531Z,19.10
2018-03-23T08:40:06.323Z,18.97
2018-03-23T08:42:35.135Z,19.80
2018-03-23T08:45:03.955Z,19.90
2018-03-23T08:47:32.750Z,23.57
2018-03-23T08:50:01.546Z,22.63
2018-03-23T08:52:30.351Z,20.27
2018-03-23T08:54:59.151Z,21.07
2018-03-23T08:57:27.958Z,21.97
2018-03-23T08:59:56.746Z,19.43
2018-03-23T09:02:25.551Z,21.60
2018-03-23T09:04:54.347Z,19.77
2018-03-23T09:07:23.150Z,19.57
2018-03-23T09:09:51.956Z,20.00
2018-03-23T09:12:20.758Z,19.93
2018-03-23T09:14:49.552Z,21.33
2018-03-23T09:17:18.352Z,21.53
2018-03-23T09:19:47.142Z,19.57
2018-03-23T09:22:15.947Z,18.93
2018-03-23T09:24:44.738Z,19.47
2018-03-23T09:27:13.534Z,20.03
2018-03-23T09:29:42.342Z,20.00
2018-03-23T09:32:11.125Z,19.97
2018-03-23T09:34:39.934Z,23.20
2018-03-23T09:37:08.734Z,20.33
2018-03-23T09:39:37.538Z,21.43
2018-03-23T09:42:06.338Z,23.40
2018-03-23T09:44:35.134Z,21.83
2018-03-23T09:47:03.922Z,19.70
2018-03-23T09:49:32.730Z,21.47
2018-03-23T09:52:01.523Z,23.50
2018-03-23T09:54:30.335Z,26.70
2018-03-23T09:56:59.119Z,25.13
2018-03-23T09:59:27.982Z,27.37
2018-03-23T10:01:56.779Z,25.53
2018-03-23T10:04:25.600Z,26.13
2018-03-23T10:06:54.380Z,25.27
2018-03-23T10:09:23.175Z,26.40
2018-03-23T10:11:51.973Z,25.13
2018-03-23T10:14:20.770Z,24.97
2018-03-23T10:16:49.558Z,25.67
2018-03-23T10:19:18.366Z,24.50
2018-03-23T10:21:47.158Z,26.63
2018-03-23T10:24:15.961Z,23.27
2018-03-23T10:26:44.753Z,21.50
2018-03-23T10:29:13.554Z,23.87
2018-03-23T10:31:42.350Z,22.10
2018-03-23T10:34:11.154Z,24.33
2018-03-23T10:36:39.947Z,25.57
2018-03-23T10:39:08.742Z,26.33
2018-03-23T10:41:37.542Z,25.83
2018-03-23T10:44:06.340Z,27.13
2018-03-23T10:46:35.137Z,29.67
2018-03-23T10:49:03.937Z,26.50
2018-03-23T10:51:32.740Z,29.97
2018-03-23T10:54:01.537Z,37.07
2018-03-23T10:56:30.338Z,44.50
2018-03-23T10:58:59.131Z,59.93
2018-03-23T11:01:31.893Z,61.70
2018-03-23T11:04:00.697Z,66.00
2018-03-23T11:06:29.498Z,68.40
2018-03-23T11:08:58.299Z,69.00
2018-03-23T11:11:27.107Z,68.83
2018-03-23T11:13:55.902Z,70.73
2018-03-23T11:16:24.708Z,69.03
2018-03-23T11:18:53.507Z,68.97
2018-03-23T11:21:22.311Z,65.70
2018-03-23T11:23:51.110Z,71.00
2018-03-23T11:26:19.922Z,66.43
2018-03-23T11:28:48.721Z,69.00
2018-03-23T11:31:17.526Z,68.07
2018-03-23T11:33:46.322Z,70.00
2018-03-23T11:36:15.127Z,66.33
2018-03-23T11:38:43.919Z,68.00
2018-03-23T11:41:12.722Z,67.33
2018-03-23T11:43:41.522Z,67.67
2018-03-23T11:46:10.330Z,65.67
2018-03-23T11:48:39.118Z,64.10
2018-03-23T11:51:07.927Z,67.93
2018-03-23T11:53:36.731Z,67.90
2018-03-23T11:56:05.546Z,68.97
2018-03-23T11:58:34.351Z,67.30
2018-03-23T12:01:03.146Z,66.37
2018-03-23T12:03:31.946Z,69.67
2018-03-23T12:06:00.738Z,67.50
2018-03-23T12:08:29.534Z,68.90
2018-03-23T12:10:58.334Z,65.50
2018-03-23T12:13:27.135Z,63.13
2018-03-23T12:15:55.943Z,69.87
2018-03-23T12:18:24.735Z,67.83
2018-03-23T12:20:53.535Z,64.20
2018-03-23T12:23:22.415Z,64.97
2018-03-23T12:25:51.221Z,57.13
2018-03-23T12:28:20.030Z,56.90
2018-03-23T12:30:48.826Z,58.87
2018-03-23T12:33:17.626Z,60.17
2018-03-23T12:35:46.426Z,61.10
2018-03-23T12:38:15.230Z,56.67
2018-03-23T12:40:44.027Z,54.53
2018-03-23T12:43:12.830Z,55.40
2018-03-23T12:45:41.639Z,56.77
2018-03-23T12:48:10.422Z,57.47
2018-03-23T12:50:39.219Z,53.57
2018-03-23T12:53:08.019Z,57.87
2018-03-23T12:55:36.814Z,49.80
2018-03-23T12:58:05.635Z,53.53
2018-03-23T13:00:34.422Z,51.90
2018-03-23T13:03:03.218Z,47.70
2018-03-23T13:05:32.014Z,48.20
2018-03-23T13:08:00.857Z,45.57
2018-03-23T13:10:29.657Z,42.67
2018-03-23T13:12:58.490Z,42.40
2018-03-23T13:15:27.295Z,44.47
2018-03-23T13:17:56.091Z,45.17
2018-03-23T13:20:24.886Z,45.47
2018-03-23T13:22:53.673Z,45.17
2018-03-23T13:25:22.470Z,38.73
2018-03-23T13:27:51.263Z,46.10
2018-03-23T13:30:20.065Z,40.70
2018-03-23T13:32:48.865Z,41.20
2018-03-23T13:35:17.658Z,37.33
2018-03-23T13:37:46.456Z,37.60
2018-03-23T13:40:15.264Z,39.13
2018-03-23T13:42:44.051Z,39.43
2018-03-23T13:45:12.850Z,36.17
2018-03-23T13:47:41.647Z,39.73
2018-03-23T13:50:10.483Z,41.57
2018-03-23T13:52:39.247Z,37.83
2018-03-23T13:55:08.055Z,38.53
2018-03-23T13:57:36.846Z,37.00
2018-03-23T14:00:05.655Z,36.87
2018-03-23T14:02:34.444Z,33.60
2018-03-23T14:05:03.238Z,33.97
2018-03-23T14:07:32.035Z,33.47
2018-03-23T14:10:00.826Z,34.03
2018-03-23T14:12:29.618Z,30.17
2018-03-23T14:14:58.414Z,31.27
2018-03-23T14:17:27.205Z,28.03
2018-03-23T14:19:56.002Z,32.30
2018-03-23T14:22:24.793Z,27.40
2018-03-23T14:24:53.594Z,29.27
2018-03-23T14:27:22.386Z,28.97
2018-03-23T14:29:53.766Z,27.47
2018-03-23T14:32:22.799Z,26.63
2018-03-23T14:34:51.590Z,26.47
2018-03-23T14:37:20.394Z,26.67
2018-03-23T14:39:49.182Z,24.37
2018-03-23T14:42:17.978Z,23.93
2018-03-23T14:44:46.770Z,24.03
2018-03-23T14:47:15.570Z,24.30
2018-03-23T14:49:44.363Z,22.53
2018-03-23T14:52:13.167Z,24.13
2018-03-23T14:54:41.957Z,22.43
2018-03-23T14:57:10.753Z,22.87
2018-03-23T14:59:39.550Z,21.60
2018-03-23T15:02:08.347Z,23.63
2018-03-23T15:04:37.125Z,22.43
2018-03-23T15:07:05.917Z,22.10
2018-03-23T15:09:34.720Z,23.47
2018-03-23T15:12:03.518Z,23.03
2018-03-23T15:14:32.306Z,21.10
2018-03-23T15:17:01.111Z,22.80
2018-03-23T15:19:29.899Z,22.53
2018-03-23T15:21:58.749Z,20.40
2018-03-23T15:24:27.547Z,20.83
2018-03-23T15:26:56.346Z,21.30
2018-03-23T15:29:25.160Z,20.40
2018-03-23T15:31:53.938Z,21.90
2018-03-23T15:34:22.734Z,23.77
2018-03-23T15:36:51.526Z,23.13
2018-03-23T15:39:20.313Z,21.43
2018-03-23T15:41:49.113Z,21.40
2018-03-23T15:44:17.997Z,21.47
2018-03-23T15:46:46.788Z,21.87
2018-03-23T15:49:15.566Z,19.87
2018-03-23T15:51:44.366Z,22.17
2018-03-23T15:54:13.155Z,20.97
2018-03-23T15:56:41.984Z,19.83
2018-03-23T15:59:10.762Z,19.07
2018-03-23T16:01:39.567Z,19.23
2018-03-23T16:04:08.346Z,20.40
2018-03-23T16:06:37.234Z,19.67
2018-03-23T16:09:06.031Z,18.43
2018-03-23T16:11:34.819Z,19.00
2018-03-23T16:14:03.620Z,19.33
2018-03-23T16:16:32.418Z,18.40
2018-03-23T16:19:01.229Z,18.50
2018-03-23T16:21:30.034Z,18.13
2018-03-23T16:23:59.617Z,18.07
2018-03-23T16:26:28.416Z,18.13
2018-03-23T16:28:57.202Z,19.70
2018-03-23T16:31:25.994Z,17.43
2018-03-23T16:33:54.792Z,17.10
2018-03-23T16:36:23.594Z,18.80
2018-03-23T16:38:52.382Z,18.87
2018-03-23T16:41:21.182Z,17.13
2018-03-23T16:43:49.974Z,19.50
2018-03-23T16:46:18.774Z,19.57
2018-03-23T16:48:47.562Z,16.57
2018-03-23T16:51:16.362Z,17.67
2018-03-23T16:53:45.158Z,18.07
2018-03-23T16:56:13.953Z,17.37
2018-03-23T16:58:42.751Z,18.33
2018-03-23T17:01:11.541Z,17.47
2018-03-23T17:03:40.330Z,19.07
2018-03-23T17:06:09.131Z,18.57
2018-03-23T17:08:37.913Z,20.23
2018-03-23T17:11:06.810Z,20.03
2018-03-23T17:13:35.598Z,23.23
2018-03-23T17:16:04.399Z,22.03
2018-03-23T17:18:33.205Z,24.27
2018-03-23T17:21:01.994Z,24.13
2018-03-23T17:23:30.793Z,21.83
2018-03-23T17:25:59.586Z,19.77
2018-03-23T17:28:28.389Z,20.73
2018-03-23T17:30:57.174Z,21.07
2018-03-23T17:33:25.974Z,20.07
2018-03-23T17:35:54.767Z,19.50
2018-03-23T17:38:23.566Z,19.63
2018-03-23T17:40:52.354Z,19.57
2018-03-23T17:43:21.148Z,20.23
2018-03-23T17:45:49.942Z,18.97
2018-03-23T17:48:18.738Z,18.20
2018-03-23T17:50:47.530Z,18.97
2018-03-23T17:53:16.329Z,16.77
2018-03-23T17:55:45.126Z,17.97
2018-03-23T17:58:13.918Z,17.10
2018-03-23T18:00:42.721Z,17.77
2018-03-23T18:03:11.504Z,20.57
2018-03-23T18:05:40.318Z,19.93
2018-03-23T18:08:09.117Z,16.70
2018-03-23T18:10:37.900Z,17.47
2018-03-23T18:13:06.699Z,16.70
2018-03-23T18:15:35.491Z,16.00
2018-03-23T18:18:04.289Z,16.30
2018-03-23T18:20:33.078Z,16.50
2018-03-23T18:23:01.952Z,14.73
2018-03-23T18:25:30.764Z,16.20
2018-03-23T18:27:59.526Z,16.63
2018-03-23T18:30:28.315Z,16.63
2018-03-23T18:32:57.118Z,17.43
2018-03-23T18:35:25.922Z,16.77
2018-03-23T18:37:54.718Z,15.33
2018-03-23T18:40:23.509Z,14.87
2018-03-23T18:42:52.319Z,15.93
2018-03-23T18:45:21.116Z,15.57
2018-03-23T18:47:49.938Z,15.80
2018-03-23T18:50:18.731Z,17.10
2018-03-23T18:52:47.530Z,18.37
2018-03-23T18:55:16.318Z,20.60
2018-03-23T18:57:45.122Z,20.10
2018-03-23T19:00:13.909Z,19.20
2018-03-23T19:02:42.707Z,19.20
2018-03-23T19:05:11.497Z,18.43
2018-03-23T19:07:41.525Z,18.83
2018-03-23T19:10:10.310Z,19.23
2018-03-23T19:12:39.121Z,18.73
2018-03-23T19:15:07.906Z,18.63
2018-03-23T19:17:36.711Z,18.57
2018-03-23T19:20:05.504Z,18.03
2018-03-23T19:22:34.304Z,18.20
2018-03-23T19:25:03.109Z,17.80
2018-03-23T19:27:31.947Z,17.13
2018-03-23T19:30:00.733Z,18.30
2018-03-23T19:32:29.745Z,17.37
2018-03-23T19:34:58.550Z,23.03
2018-03-23T19:37:27.368Z,32.77
2018-03-23T19:39:56.246Z,90.33
2018-03-23T19:42:25.024Z,48.70
2018-03-23T19:44:53.825Z,85.10
2018-03-23T19:47:22.630Z,47.80
2018-03-23T19:49:51.427Z,39.03
2018-03-23T19:52:20.223Z,43.40
2018-03-23T19:54:49.022Z,44.20
2018-03-23T19:57:19.076Z,55.17
2018-03-23T19:59:47.870Z,41.10
2018-03-23T20:02:16.657Z,42.90
2018-03-23T20:04:45.466Z,43.90
2018-03-23T20:07:14.274Z,42.83
2018-03-23T20:09:43.090Z,40.87
2018-03-23T20:12:11.909Z,40.33
2018-03-23T20:14:40.699Z,39.37
2018-03-23T20:17:09.487Z,45.50
2018-03-23T20:19:38.282Z,52.90
2018-03-23T20:22:07.111Z,44.03
2018-03-23T20:24:35.906Z,42.30
2018-03-23T20:27:10.410Z,41.93
2018-03-23T20:29:39.206Z,42.93
2018-03-23T20:32:13.780Z,39.43
2018-03-23T20:34:42.578Z,40.20
2018-03-23T20:37:11.375Z,44.57
2018-03-23T20:39:40.178Z,44.50
2018-03-23T20:42:08.966Z,39.37
2018-03-23T20:44:37.766Z,39.93
2018-03-23T20:47:06.565Z,37.27
2018-03-23T20:49:35.383Z,36.73
2018-03-23T20:52:04.170Z,37.43
2018-03-23T20:54:32.973Z,37.77
2018-03-23T20:57:01.754Z,35.00
2018-03-23T20:59:30.558Z,34.20
2018-03-23T21:01:59.342Z,34.63
2018-03-23T21:04:28.165Z,36.67
2018-03-23T21:06:56.918Z,36.57
2018-03-23T21:09:25.743Z,36.03
2018-03-23T21:11:54.550Z,35.17
2018-03-23T21:14:23.354Z,36.17
2018-03-23T21:16:52.138Z,36.17
2018-03-23T21:19:20.930Z,37.27
2018-03-23T21:21:49.719Z,37.70
2018-03-23T21:24:18.579Z,38.30
2018-03-23T21:26:47.365Z,36.47
2018-03-23T21:29:16.182Z,36.97
2018-03-23T21:31:45.003Z,36.97
2018-03-23T21:34:13.787Z,39.30
2018-03-23T21:36:42.578Z,35.00
2018-03-23T21:39:11.373Z,37.83
2018-03-23T21:41:40.166Z,36.13
2018-03-23T21:44:08.954Z,35.17
2018-03-23T21:46:37.750Z,34.73
2018-03-23T21:49:06.542Z,34.03
2018-03-23T21:51:35.360Z,32.87
2018-03-23T21:54:04.168Z,33.13
2018-03-23T21:56:32.963Z,34.23
2018-03-23T21:59:01.755Z,36.23
2018-03-23T22:01:30.554Z,37.03
2018-03-23T22:03:59.338Z,36.30
2018-03-23T22:06:28.158Z,38.67
2018-03-23T22:08:56.942Z,36.10
2018-03-23T22:11:25.759Z,38.10
2018-03-23T22:13:54.534Z,38.70
2018-03-23T22:16:23.360Z,35.53
2018-03-23T22:18:52.119Z,35.97
2018-03-23T22:21:20.914Z,33.93
2018-03-23T22:23:49.705Z,37.50
2018-03-23T22:26:18.514Z,37.17
2018-03-23T22:28:47.296Z,39.07
2018-03-23T22:31:16.092Z,35.80
2018-03-23T22:33:44.882Z,33.67
2018-03-23T22:36:13.686Z,33.13
2018-03-23T22:38:42.486Z,36.27
2018-03-23T22:41:11.281Z,34.97
2018-03-23T22:43:40.074Z,34.63
2018-03-23T22:46:08.867Z,33.27
2018-03-23T22:48:37.658Z,36.07
2018-03-23T22:51:06.450Z,38.33
2018-03-23T22:53:35.246Z,36.63
2018-03-23T22:56:04.034Z,35.07
2018-03-23T22:58:32.841Z,36.53
2018-03-23T23:01:01.646Z,34.00
2018-03-23T23:03:30.426Z,36.13
2018-03-23T23:05:59.213Z,35.30
2018-03-23T23:08:28.010Z,37.50
2018-03-23T23:10:56.802Z,35.80
2018-03-23T23:13:25.602Z,37.63
2018-03-23T23:15:54.394Z,39.77
2018-03-23T23:18:23.206Z,39.73
2018-03-23T23:20:52.007Z,42.07
2018-03-23T23:23:20.810Z,37.30
2018-03-23T23:25:49.600Z,36.33
2018-03-23T23:28:18.399Z,36.37
2018-03-23T23:30:47.186Z,35.57
2018-03-23T23:33:15.982Z,33.67
2018-03-23T23:35:44.783Z,36.97
2018-03-23T23:38:13.583Z,36.47
2018-03-23T23:40:42.375Z,39.63
2018-03-23T23:43:11.170Z,37.23
2018-03-23T23:45:39.975Z,36.40
2018-03-23T23:48:08.760Z,36.40
2018-03-23T23:50:37.556Z,35.90
2018-03-23T23:53:06.359Z,33.63
2018-03-23T23:55:35.155Z,34.93
2018-03-23T23:58:03.970Z,36.60
